Arden, North Carolina
Current Conditions -  °F | °C
As of 2:54 PM on Monday 26 Jan 2015 (Local Time) from KAVL Reporting Station
Overcast Overcast  
Wind Chill: -3°   Ceiling: 2700
Heat Index:   Visibility: 8mi
Dew Point: -2°   Wind: 14mph
Humidity: 76%   Direction: 350°N
Pressure: 29.69"   Gusts: 21mph
Location:  35.47°N, 82.52°W
Report Text: KAVL 261954Z 35012G18KT 8SM OVC027 02/M02 A2969 RMK AO2 SLP060 T00221017
Loading
Personal Weather Stations






























Interactive Weather Map New forecast layout! Learn more

10-Day Weather Forecast

Advertisements
Track Severe Weather on mobile